Time;durP1;ratioP1;P1;durP2;ratioP2;P2;SDS_P1;SDS_P2;PMS_P1;PMS_P2;Temp;Humidity;BMP_temperature;BMP_pressure;BME280_temperature;BME280_humidity;BME280_pressure;Samples;Min_cycle;Max_cycle;Signal;HPM_P1;HPM_P2
2023/04/16 00:02:10;;;;;;;15.38;6.22;;;8.30;93.00;;;;;;6109299;23;87978;-71
2023/04/16 00:04:35;;;;;;;14.18;6.28;;;8.30;93.20;;;;;;6084868;23;87871;-71
2023/04/16 00:07:01;;;;;;;18.27;6.63;;;8.20;93.00;;;;;;6084590;23;88871;-71
2023/04/16 00:09:26;;;;;;;23.67;6.93;;;8.20;93.20;;;;;;6085497;23;91566;-70
2023/04/16 00:11:52;;;;;;;18.88;7.20;;;8.20;93.50;;;;;;6085930;23;90965;-71
2023/04/16 00:14:18;;;;;;;23.02;8.32;;;8.20;93.50;;;;;;6106242;22;87902;-71
2023/04/16 00:16:43;;;;;;;16.98;7.78;;;8.20;93.50;;;;;;6114483;22;90198;-71
2023/04/16 00:19:09;;;;;;;19.58;8.40;;;8.10;93.90;;;;;;6139363;22;89535;-71
2023/04/16 00:21:35;;;;;;;16.10;8.02;;;8.10;93.90;;;;;;6140211;22;89276;-71
2023/04/16 00:24:00;;;;;;;16.88;8.18;;;8.10;94.00;;;;;;6115075;22;87699;-71
2023/04/16 00:26:26;;;;;;;19.23;8.93;;;8.10;94.10;;;;;;6184846;22;87560;-71
2023/04/16 00:28:51;;;;;;;25.13;8.02;;;8.10;94.30;;;;;;6176222;22;91916;-71
2023/04/16 00:31:17;;;;;;;24.52;8.88;;;8.10;94.20;;;;;;6177315;22;91160;-71
2023/04/16 00:33:42;;;;;;;17.95;8.32;;;8.10;94.20;;;;;;6178368;22;87471;-71
2023/04/16 00:36:09;;;;;;;21.15;9.18;;;8.00;93.90;;;;;;6140331;22;89744;-71
2023/04/16 00:38:34;;;;;;;21.83;9.25;;;8.00;94.00;;;;;;6114107;22;91131;-71
2023/04/16 00:41:00;;;;;;;17.58;8.93;;;7.90;94.20;;;;;;6138702;22;88565;-70
2023/04/16 00:43:26;;;;;;;18.63;9.50;;;7.80;94.20;;;;;;6138248;22;88637;-71
2023/04/16 00:45:55;;;;;;;27.35;9.75;;;7.90;94.70;;;;;;6115332;22;90358;-71
2023/04/16 00:48:20;;;;;;;18.77;9.15;;;7.90;94.60;;;;;;6140424;22;87755;-71
2023/04/16 00:50:46;;;;;;;18.77;8.27;;;7.90;94.50;;;;;;6138720;22;88292;-70
2023/04/16 00:53:13;;;;;;;20.40;9.40;;;7.90;94.50;;;;;;6114704;22;88837;-71
2023/04/16 00:55:39;;;;;;;29.33;10.43;;;7.90;94.70;;;;;;6114525;22;89499;-71
2023/04/16 00:58:05;;;;;;;17.75;8.27;;;7.80;94.70;;;;;;6138028;22;87717;-75
2023/04/16 01:00:31;;;;;;;19.27;9.20;;;7.80;94.80;;;;;;6141539;22;87874;-71
2023/04/16 01:02:58;;;;;;;20.17;9.95;;;7.80;94.70;;;;;;6139843;22;87583;-70
2023/04/16 01:05:24;;;;;;;19.65;9.98;;;7.70;94.80;;;;;;6114101;22;90356;-72
2023/04/16 01:07:50;;;;;;;23.42;9.45;;;7.70;94.80;;;;;;6187013;22;88659;-71
2023/04/16 01:10:16;;;;;;;18.05;8.88;;;7.70;94.90;;;;;;6203804;22;88910;-71
2023/04/16 01:12:42;;;;;;;26.00;10.52;;;7.70;95.00;;;;;;6204153;22;87342;-71
2023/04/16 01:15:08;;;;;;;26.85;9.73;;;7.70;95.10;;;;;;6203702;22;87281;-72
2023/04/16 01:17:33;;;;;;;17.77;9.40;;;7.70;95.00;;;;;;6203905;22;88689;-71
2023/04/16 01:19:59;;;;;;;24.60;9.68;;;7.70;94.90;;;;;;6176961;22;90799;-71
2023/04/16 01:22:26;;;;;;;20.13;8.98;;;7.70;94.90;;;;;;6203582;22;87552;-71
2023/04/16 01:24:52;;;;;;;19.50;9.40;;;7.60;94.80;;;;;;6176734;22;90273;-73
2023/04/16 01:27:17;;;;;;;23.20;9.88;;;7.60;95.00;;;;;;6204589;22;87835;-73
2023/04/16 01:29:43;;;;;;;25.50;10.27;;;7.60;95.00;;;;;;6176790;22;90643;-71
2023/04/16 01:32:09;;;;;;;26.92;10.43;;;7.60;95.10;;;;;;6176565;22;88619;-71
2023/04/16 01:34:34;;;;;;;15.93;10.05;;;7.60;95.10;;;;;;6176755;22;90585;-71
2023/04/16 01:37:00;;;;;;;16.45;10.48;;;7.60;95.10;;;;;;6175887;22;91188;-70
2023/04/16 01:39:26;;;;;;;23.20;9.55;;;7.60;95.00;;;;;;6203683;22;87959;-71
2023/04/16 01:41:51;;;;;;;23.92;9.35;;;7.60;95.00;;;;;;6202248;22;88237;-72
2023/04/16 01:44:17;;;;;;;25.27;9.50;;;7.60;95.10;;;;;;6203905;22;87568;-71
2023/04/16 01:46:43;;;;;;;26.30;9.60;;;7.60;95.10;;;;;;6176599;22;91299;-71
2023/04/16 01:49:09;;;;;;;24.08;8.38;;;7.60;95.30;;;;;;6202739;22;88246;-71
2023/04/16 01:51:35;;;;;;;20.17;9.32;;;7.60;95.10;;;;;;6177629;22;87532;-72
2023/04/16 01:54:00;;;;;;;13.55;8.20;;;7.60;95.10;;;;;;6203169;22;87617;-70
2023/04/16 01:56:26;;;;;;;17.40;9.43;;;7.60;95.10;;;;;;6175534;22;92328;-71
2023/04/16 01:58:52;;;;;;;18.73;9.68;;;7.60;95.10;;;;;;6175619;22;91705;-72
2023/04/16 02:01:18;;;;;;;19.20;9.77;;;7.60;95.10;;;;;;6202901;22;87655;-72
2023/04/16 02:03:44;;;;;;;22.67;11.02;;;7.70;95.10;;;;;;6204707;22;87525;-71
2023/04/16 02:06:09;;;;;;;19.25;9.52;;;7.60;95.20;;;;;;6202187;22;87688;-72
2023/04/16 02:08:35;;;;;;;21.25;9.50;;;7.70;95.30;;;;;;6176318;22;91543;-72
2023/04/16 02:11:01;;;;;;;21.98;9.77;;;7.60;95.10;;;;;;6175512;22;87812;-72
2023/04/16 02:13:26;;;;;;;18.00;10.05;;;7.60;95.40;;;;;;6176799;22;90629;-71
2023/04/16 02:15:52;;;;;;;17.83;9.68;;;7.60;95.20;;;;;;6202547;22;87715;-71
2023/04/16 02:18:17;;;;;;;23.77;10.40;;;7.60;95.20;;;;;;6204341;22;88726;-70
2023/04/16 02:20:44;;;;;;;17.95;9.60;;;7.60;95.20;;;;;;6201659;22;89095;-71
2023/04/16 02:23:11;;;;;;;20.65;10.40;;;7.60;95.30;;;;;;6202814;22;87898;-72
2023/04/16 02:25:40;;;;;;;23.73;11.43;;;7.60;95.30;;;;;;6201436;22;88537;-71
2023/04/16 02:28:16;;;;;;;27.92;11.05;;;7.60;95.30;;;;;;6202439;22;87570;-71
2023/04/16 02:30:42;;;;;;;18.00;10.63;;;7.60;95.30;;;;;;6201714;22;88302;-71
2023/04/16 02:33:10;;;;;;;20.30;10.80;;;7.60;95.20;;;;;;6202852;22;87644;-70
2023/04/16 02:35:37;;;;;;;18.77;9.77;;;7.60;95.30;;;;;;6202430;22;87645;-71
2023/04/16 02:38:03;;;;;;;20.88;10.82;;;7.60;95.30;;;;;;6202315;22;88247;-73
2023/04/16 02:40:29;;;;;;;21.80;10.25;;;7.60;95.10;;;;;;6176182;22;87638;-71
2023/04/16 02:42:56;;;;;;;28.00;12.02;;;7.60;95.30;;;;;;6175693;22;90450;-71
2023/04/16 02:45:22;;;;;;;22.02;10.60;;;7.60;95.30;;;;;;6176446;22;92404;-72
2023/04/16 02:47:49;;;;;;;17.25;10.88;;;7.50;95.20;;;;;;6203428;22;88127;-72
2023/04/16 02:50:14;;;;;;;19.05;10.20;;;7.60;95.30;;;;;;6175594;22;87180;-72
2023/04/16 02:52:40;;;;;;;23.17;12.60;;;7.60;95.20;;;;;;6175564;22;90317;-71
2023/04/16 02:55:06;;;;;;;26.42;11.73;;;7.60;95.40;;;;;;6202302;22;88099;-70
2023/04/16 02:57:32;;;;;;;27.27;12.15;;;7.60;95.20;;;;;;6178308;22;91228;-71
2023/04/16 02:59:58;;;;;;;22.20;10.55;;;7.60;95.40;;;;;;6204319;22;87366;-71
2023/04/16 03:02:24;;;;;;;19.10;10.45;;;7.60;95.40;;;;;;6177578;22;90864;-71
2023/04/16 03:04:49;;;;;;;21.55;10.80;;;7.60;95.40;;;;;;6137525;22;90967;-71
2023/04/16 03:07:17;;;;;;;20.08;10.52;;;7.60;95.40;;;;;;6138359;22;91273;-70
2023/04/16 03:09:42;;;;;;;19.60;10.02;;;7.60;95.40;;;;;;6140108;22;88944;-69
2023/04/16 03:12:08;;;;;;;19.90;10.15;;;7.60;95.20;;;;;;6139704;22;87500;-70
2023/04/16 03:14:34;;;;;;;15.63;9.05;;;7.60;95.30;;;;;;6139319;22;87495;-71
2023/04/16 03:17:00;;;;;;;18.23;8.70;;;7.60;95.40;;;;;;6114944;22;91578;-73
2023/04/16 03:19:25;;;;;;;17.55;8.60;;;7.60;95.50;;;;;;6115567;22;87670;-71
2023/04/16 03:21:51;;;;;;;16.85;9.30;;;7.60;95.40;;;;;;6140561;22;90310;-71
2023/04/16 03:24:16;;;;;;;18.55;8.45;;;7.60;95.60;;;;;;6141013;22;91186;-72
2023/04/16 03:26:42;;;;;;;15.48;8.50;;;7.60;95.70;;;;;;6141085;22;86975;-72
2023/04/16 03:29:08;;;;;;;18.25;9.25;;;7.60;95.40;;;;;;6115112;22;88451;-72
2023/04/16 03:31:33;;;;;;;20.58;8.75;;;7.60;95.90;;;;;;6139374;22;87424;-72
2023/04/16 03:33:59;;;;;;;16.48;9.38;;;7.60;95.60;;;;;;6114487;22;91923;-72
2023/04/16 03:36:26;;;;;;;17.10;9.30;;;7.60;95.70;;;;;;6185957;22;88832;-71
2023/04/16 03:38:51;;;;;;;17.83;9.38;;;7.60;95.70;;;;;;6205035;22;87358;-72
2023/04/16 03:41:17;;;;;;;18.00;9.93;;;7.60;95.70;;;;;;6176986;22;90957;-71
2023/04/16 03:43:43;;;;;;;18.33;9.20;;;7.60;95.90;;;;;;6177662;22;91572;-72
2023/04/16 03:46:08;;;;;;;20.15;9.43;;;7.60;95.80;;;;;;6203802;22;88720;-72
2023/04/16 03:48:35;;;;;;;22.05;9.75;;;7.60;95.80;;;;;;6205387;22;87469;-72
2023/04/16 03:51:01;;;;;;;25.55;10.52;;;7.60;95.90;;;;;;6176968;22;90044;-72
2023/04/16 03:53:26;;;;;;;19.23;9.88;;;7.60;95.90;;;;;;6203009;22;93675;-71
2023/04/16 03:55:52;;;;;;;25.20;10.85;;;7.60;95.90;;;;;;6177416;22;91591;-72
2023/04/16 03:58:18;;;;;;;19.80;10.30;;;7.60;96.00;;;;;;6201868;22;88452;-72
2023/04/16 04:00:44;;;;;;;24.95;11.60;;;7.70;96.10;;;;;;6203904;22;87328;-72
2023/04/16 04:03:10;;;;;;;24.85;11.07;;;7.70;96.10;;;;;;6203309;22;88849;-71
2023/04/16 04:05:40;;;;;;;20.52;12.43;;;7.70;96.10;;;;;;6175433;22;90573;-71
2023/04/16 04:08:06;;;;;;;29.50;13.18;;;7.70;96.10;;;;;;6202931;22;87381;-72
2023/04/16 04:10:33;;;;;;;27.58;12.27;;;7.70;96.10;;;;;;6176173;22;90398;-71
2023/04/16 04:13:00;;;;;;;31.48;15.18;;;7.80;96.10;;;;;;6176105;22;91193;-72
2023/04/16 04:15:25;;;;;;;30.60;14.35;;;7.70;96.20;;;;;;6177783;22;91284;-72
2023/04/16 04:17:51;;;;;;;31.40;13.55;;;7.80;96.30;;;;;;6175964;22;88423;-70
2023/04/16 04:20:17;;;;;;;29.48;15.25;;;7.80;96.30;;;;;;6176501;22;90346;-72
2023/04/16 04:22:42;;;;;;;31.38;15.25;;;7.80;96.20;;;;;;6200879;22;89175;-72
2023/04/16 04:25:09;;;;;;;31.98;14.75;;;7.80;96.40;;;;;;6176171;22;92895;-73
2023/04/16 04:27:35;;;;;;;33.05;16.38;;;7.80;96.30;;;;;;6205284;22;87887;-71
2023/04/16 04:30:01;;;;;;;28.13;17.08;;;7.80;96.30;;;;;;6175826;22;90325;-72
2023/04/16 04:32:27;;;;;;;32.97;15.80;;;7.90;96.40;;;;;;6203657;22;91569;-71
2023/04/16 04:34:52;;;;;;;33.30;16.88;;;7.90;96.40;;;;;;6176090;22;91007;-72
2023/04/16 04:37:18;;;;;;;36.78;17.08;;;7.90;96.30;;;;;;6176203;22;87573;-72
2023/04/16 04:39:43;;;;;;;29.63;17.30;;;8.00;96.40;;;;;;6177749;22;90541;-72
2023/04/16 04:42:09;;;;;;;30.27;16.20;;;8.00;96.40;;;;;;6203311;22;87983;-72
2023/04/16 04:44:35;;;;;;;35.95;17.20;;;8.00;96.30;;;;;;6175708;22;91086;-72
2023/04/16 04:47:01;;;;;;;34.95;18.77;;;8.00;96.20;;;;;;6203206;22;88501;-72
2023/04/16 04:49:26;;;;;;;36.95;18.58;;;8.00;96.30;;;;;;6208561;22;87657;-71
2023/04/16 04:51:52;;;;;;;35.85;19.55;;;8.00;96.40;;;;;;6208594;22;91281;-71
2023/04/16 04:54:17;;;;;;;40.85;19.67;;;8.00;96.30;;;;;;6204617;22;88448;-72
2023/04/16 04:56:44;;;;;;;31.58;19.58;;;8.10;96.40;;;;;;6203515;22;87197;-72
2023/04/16 04:59:11;;;;;;;31.20;18.83;;;8.10;96.40;;;;;;6175760;22;90141;-72
2023/04/16 05:01:37;;;;;;;35.50;20.75;;;8.10;96.40;;;;;;6202411;22;88283;-72
2023/04/16 05:04:03;;;;;;;31.10;18.35;;;8.10;96.50;;;;;;6176324;22;91450;-72
2023/04/16 05:06:28;;;;;;;36.78;18.63;;;8.10;96.20;;;;;;6138038;22;87607;-71
2023/04/16 05:08:54;;;;;;;32.35;18.70;;;8.10;96.30;;;;;;6112705;22;90281;-73
2023/04/16 05:11:20;;;;;;;39.80;19.70;;;8.10;96.40;;;;;;6112827;22;92522;-72
2023/04/16 05:13:45;;;;;;;35.22;19.33;;;8.10;96.40;;;;;;6137974;22;89646;-72
2023/04/16 05:16:11;;;;;;;33.00;18.83;;;8.10;96.40;;;;;;6137385;22;87497;-71
2023/04/16 05:18:37;;;;;;;41.10;20.13;;;8.20;96.30;;;;;;6114071;22;90770;-71
2023/04/16 05:21:02;;;;;;;38.90;19.83;;;8.20;96.50;;;;;;6138988;22;88407;-72
2023/04/16 05:23:28;;;;;;;37.72;19.00;;;8.20;96.30;;;;;;6138235;22;88739;-72
2023/04/16 05:25:54;;;;;;;33.47;18.20;;;8.10;96.40;;;;;;6137818;22;87725;-73
2023/04/16 05:28:19;;;;;;;39.92;18.80;;;8.20;96.30;;;;;;6139273;22;88940;-72
2023/04/16 05:30:45;;;;;;;43.38;22.05;;;8.20;96.40;;;;;;6114146;22;90720;-73
2023/04/16 05:33:11;;;;;;;45.78;23.05;;;8.20;96.40;;;;;;6138501;22;87882;-72
2023/04/16 05:35:36;;;;;;;50.58;23.05;;;8.20;96.30;;;;;;6112971;22;88514;-73
2023/04/16 05:38:03;;;;;;;49.05;24.25;;;8.20;96.30;;;;;;6183561;22;90167;-72
2023/04/16 05:40:29;;;;;;;46.85;23.40;;;8.20;96.30;;;;;;6202562;22;87889;-73
2023/04/16 05:42:54;;;;;;;48.17;25.90;;;8.20;96.20;;;;;;6175149;22;91624;-72
2023/04/16 05:45:20;;;;;;;50.63;27.05;;;8.20;96.20;;;;;;6176481;22;87407;-71
2023/04/16 05:47:46;;;;;;;53.28;27.00;;;8.20;96.10;;;;;;6202836;22;87700;-72
2023/04/16 05:50:12;;;;;;;48.22;27.00;;;8.30;96.10;;;;;;6202095;22;88550;-72
2023/04/16 05:52:38;;;;;;;49.63;26.55;;;8.20;96.20;;;;;;6201756;22;88432;-72
2023/04/16 05:55:04;;;;;;;55.00;27.25;;;8.30;96.20;;;;;;6200909;22;87981;-72
2023/04/16 05:57:30;;;;;;;52.55;26.75;;;8.30;96.20;;;;;;6176655;22;89954;-71
2023/04/16 05:59:56;;;;;;;60.83;27.70;;;8.30;96.20;;;;;;6201302;22;88977;-71
2023/04/16 06:02:21;;;;;;;48.85;27.60;;;8.20;96.20;;;;;;6201359;22;89631;-72
2023/04/16 06:04:48;;;;;;;54.88;27.25;;;8.30;96.10;;;;;;6174701;22;87511;-70
2023/04/16 06:07:14;;;;;;;61.58;28.77;;;8.30;96.20;;;;;;6175642;22;89485;-70
2023/04/16 06:09:39;;;;;;;60.13;29.58;;;8.30;96.20;;;;;;6203018;22;88357;-72
2023/04/16 06:12:06;;;;;;;61.15;28.70;;;8.30;96.00;;;;;;6202828;22;88361;-71
2023/04/16 06:14:31;;;;;;;58.40;29.63;;;8.30;96.20;;;;;;6202058;22;87901;-72
2023/04/16 06:16:57;;;;;;;55.65;27.85;;;8.30;96.10;;;;;;6174314;22;90661;-72
2023/04/16 06:19:23;;;;;;;59.22;28.95;;;8.30;96.20;;;;;;6202191;22;88567;-72
2023/04/16 06:21:49;;;;;;;59.92;29.55;;;8.30;96.00;;;;;;6203092;22;89047;-76
2023/04/16 06:24:15;;;;;;;55.92;28.17;;;8.30;96.00;;;;;;6206656;22;88292;-77
2023/04/16 06:26:40;;;;;;;62.30;29.90;;;8.30;96.00;;;;;;6207088;22;88282;-75
2023/04/16 06:29:06;;;;;;;65.90;30.67;;;8.40;96.20;;;;;;6212383;22;87853;-73
2023/04/16 06:31:32;;;;;;;59.92;29.05;;;8.40;96.00;;;;;;6204605;22;88335;-78
2023/04/16 06:33:59;;;;;;;56.03;29.00;;;8.40;96.10;;;;;;6213221;22;87503;-76
2023/04/16 06:47:19;;;;;;;59.85;30.00;;;8.40;95.90;;;;;;6179648;22;88394;-83
2023/04/16 06:49:45;;;;;;;57.58;26.60;;;8.40;95.90;;;;;;6249679;22;90589;-84
2023/04/16 06:52:32;;;;;;;48.92;25.80;;;8.40;95.80;;;;;;6189797;22;87735;-83
2023/04/16 07:11:43;;;;;;;51.08;23.85;;;8.50;95.50;;;;;;6177652;22;88752;-81
2023/04/16 07:14:39;;;;;;;52.78;24.20;;;8.60;95.70;;;;;;6130920;22;89796;-86
2023/04/16 07:17:07;;;;;;;51.47;24.10;;;8.60;95.40;;;;;;6107355;23;87598;-88
2023/04/16 07:19:34;;;;;;;43.75;23.23;;;8.70;95.50;;;;;;6097249;23;87071;-87
2023/04/16 07:22:20;;;;;;;45.33;23.65;;;8.70;95.40;;;;;;6035047;23;89042;-94
2023/04/16 07:28:07;;;;;;;46.72;21.98;;;8.70;95.40;;;;;;6030379;23;87410;-83
2023/04/16 07:31:17;;;;;;;43.47;22.02;;;8.70;95.30;;;;;;5997935;23;88841;-83
2023/04/16 07:33:43;;;;;;;44.17;20.58;;;8.70;95.00;;;;;;5998764;23;87118;-85
2023/04/16 07:36:09;;;;;;;35.92;20.23;;;8.80;95.50;;;;;;5971096;23;91517;-85
2023/04/16 07:38:35;;;;;;;35.17;18.75;;;8.80;95.20;;;;;;5991246;23;87397;-82
2023/04/16 07:41:01;;;;;;;37.53;18.85;;;8.80;95.10;;;;;;5988850;23;90223;-84
2023/04/16 07:44:09;;;;;;;40.00;18.77;;;8.80;95.30;;;;;;5994058;23;90483;-83
2023/04/16 07:46:35;;;;;;;37.60;20.67;;;8.80;95.30;;;;;;5996441;23;93668;-85
2023/04/16 07:49:23;;;;;;;37.97;20.23;;;8.90;95.10;;;;;;6037251;23;86211;-87
2023/04/16 07:52:11;;;;;;;43.58;20.23;;;8.80;94.90;;;;;;5967924;23;87659;-86
2023/04/16 07:54:40;;;;;;;41.67;21.13;;;8.80;95.10;;;;;;6028830;22;88933;-82
2023/04/16 07:57:11;;;;;;;37.50;20.67;;;8.90;95.20;;;;;;6141591;22;88680;-82
2023/04/16 08:07:56;;;;;;;38.67;20.00;;;9.00;95.00;;;;;;6178827;22;88823;-81
2023/04/16 08:10:22;;;;;;;37.38;20.15;;;9.10;95.10;;;;;;6206584;22;87729;-83
2023/04/16 08:18:00;;;;;;;32.13;18.35;;;9.10;94.70;;;;;;6230457;22;88752;-82
2023/04/16 08:20:26;;;;;;;32.22;18.10;;;9.10;94.60;;;;;;6205081;22;86975;-83
2023/04/16 08:22:53;;;;;;;36.90;18.60;;;9.10;94.80;;;;;;6243938;22;86489;-85
2023/04/16 08:25:19;;;;;;;33.08;17.13;;;9.10;94.80;;;;;;6219413;22;92246;-89
2023/04/16 08:28:05;;;;;;;32.15;18.38;;;9.20;94.70;;;;;;6168604;22;87333;-81
2023/04/16 08:30:31;;;;;;;36.08;19.27;;;9.20;94.80;;;;;;6138595;22;87231;-81
2023/04/16 08:33:18;;;;;;;43.47;21.00;;;9.30;94.50;;;;;;6128278;22;87308;-82
2023/04/16 08:36:14;;;;;;;33.28;18.85;;;9.30;94.50;;;;;;6205853;22;88205;-80
2023/04/16 08:39:00;;;;;;;39.72;20.20;;;9.30;94.60;;;;;;6233383;22;87660;-81
2023/04/16 08:41:31;;;;;;;35.25;17.10;;;9.40;94.80;;;;;;6052273;23;87422;-81
2023/04/16 08:44:39;;;;;;;31.00;17.42;;;9.40;94.50;;;;;;6052455;23;86828;-81
2023/04/16 08:47:16;;;;;;;32.47;16.92;;;9.40;94.50;;;;;;6031502;23;87095;-81
2023/04/16 08:50:10;;;;;;;34.30;17.42;;;9.50;94.30;;;;;;6064030;23;90216;-82
2023/04/16 08:53:02;;;;;;;31.55;16.23;;;9.50;94.50;;;;;;6055561;23;87820;-82
2023/04/16 08:55:51;;;;;;;33.97;18.20;;;9.50;94.30;;;;;;6057102;23;88538;-83
2023/04/16 08:58:30;;;;;;;34.90;18.48;;;9.60;94.40;;;;;;6000385;23;87112;-81
2023/04/16 09:06:40;;;;;;;34.55;17.58;;;9.60;94.40;;;;;;6217973;22;87993;-82
2023/04/16 09:09:53;;;;;;;31.30;17.33;;;9.60;94.30;;;;;;6126629;22;88863;-83
2023/04/16 09:12:48;;;;;;;28.80;17.17;;;9.70;94.20;;;;;;6167602;22;86784;-81
2023/04/16 09:15:35;;;;;;;33.25;18.10;;;9.80;94.20;;;;;;6185274;22;86911;-81
2023/04/16 09:18:01;;;;;;;36.33;18.70;;;9.80;93.90;;;;;;6140861;22;87172;-81
2023/04/16 09:20:27;;;;;;;30.52;17.30;;;9.90;93.80;;;;;;6178642;22;87531;-81
2023/04/16 09:22:55;;;;;;;33.25;16.77;;;9.90;93.60;;;;;;6156334;22;88803;-81
2023/04/16 09:25:23;;;;;;;32.25;17.83;;;9.90;93.70;;;;;;6151599;22;86504;-81
2023/04/16 09:27:50;;;;;;;32.90;16.02;;;9.90;93.60;;;;;;6121848;22;89175;-80
2023/04/16 09:40:25;;;;;;;32.63;15.95;;;10.00;93.50;;;;;;6162913;22;87047;-80
2023/04/16 09:42:52;;;;;;;33.50;16.08;;;10.00;93.40;;;;;;6160269;22;94014;-80
2023/04/16 09:45:17;;;;;;;34.20;16.83;;;10.00;93.20;;;;;;6160100;22;88953;-79
2023/04/16 09:47:44;;;;;;;33.65;17.33;;;10.00;93.40;;;;;;6132961;22;87108;-80
2023/04/16 09:50:23;;;;;;;33.15;17.05;;;10.00;93.40;;;;;;6163499;22;87328;-81
2023/04/16 09:52:51;;;;;;;35.13;16.95;;;10.10;93.40;;;;;;6095148;22;91425;-80
2023/04/16 09:57:59;;;;;;;34.13;19.60;;;10.10;93.00;;;;;;6178089;22;89827;-81
2023/04/16 10:00:25;;;;;;;;;;;10.20;93.20;;;;;;6246980;22;86644;-81
2023/04/16 10:03:14;;;;;;;35.17;18.58;;;10.20;92.90;;;;;;6221893;22;87986;-82
2023/04/16 10:05:53;;;;;;;33.50;18.30;;;10.30;93.00;;;;;;6133541;22;88937;-82
2023/04/16 10:16:49;;;;;;;31.10;18.33;;;10.60;92.10;;;;;;6181971;22;86927;-81
2023/04/16 10:20:14;;;;;;;31.20;18.33;;;10.70;91.80;;;;;;6067833;23;86908;-81
2023/04/16 10:23:08;;;;;;;27.85;16.42;;;10.70;92.10;;;;;;5927578;23;86702;-82
2023/04/16 10:26:01;;;;;;;;;;;10.70;92.10;;;;;;5877435;23;90918;-81
2023/04/16 10:28:29;;;;;;;35.05;17.50;;;10.70;91.70;;;;;;5956315;23;86518;-81
2023/04/16 10:31:15;;;;;;;29.70;15.68;;;10.60;92.00;;;;;;5945030;23;87227;-80
2023/04/16 10:33:44;;;;;;;26.63;16.27;;;10.50;92.20;;;;;;5920081;23;86634;-81
2023/04/16 10:39:37;;;;;;;30.35;17.73;;;10.50;92.20;;;;;;6150735;22;89335;-81
2023/04/16 10:42:29;;;;;;;33.08;17.77;;;10.40;92.20;;;;;;6173152;22;87471;-81
2023/04/16 10:45:00;;;;;;;29.70;17.20;;;10.40;92.10;;;;;;6145312;22;86637;-79
2023/04/16 10:47:31;;;;;;;30.27;18.00;;;10.30;92.50;;;;;;6118338;23;90715;-80
2023/04/16 10:50:17;;;;;;;32.80;17.80;;;10.40;92.30;;;;;;6128568;23;87599;-81
2023/04/16 10:52:49;;;;;;;32.30;16.98;;;10.40;92.50;;;;;;6121941;22;88219;-81
2023/04/16 10:55:21;;;;;;;34.80;17.23;;;10.40;92.30;;;;;;6054195;23;87816;-82
2023/04/16 10:58:58;;;;;;;31.15;17.38;;;10.40;92.60;;;;;;6004465;23;86721;-81
2023/04/16 11:01:50;;;;;;;34.55;19.75;;;10.40;92.50;;;;;;5944374;23;87980;-81
2023/04/16 11:04:48;;;;;;;30.38;18.02;;;10.40;92.30;;;;;;5940284;23;87508;-80
2023/04/16 11:10:01;;;;;;;38.08;19.73;;;10.50;92.70;;;;;;6174207;22;89201;-79
2023/04/16 11:12:46;;;;;;;36.13;19.55;;;10.60;92.30;;;;;;6170949;22;90954;-81
2023/04/16 11:15:18;;;;;;;37.80;18.60;;;10.60;92.20;;;;;;6156909;22;87227;-80
2023/04/16 11:18:09;;;;;;;32.70;20.33;;;10.70;91.90;;;;;;6189676;22;86769;-81
2023/04/16 11:22:12;;;;;;;40.60;20.77;;;10.70;92.00;;;;;;6022353;23;92382;-81
2023/04/16 11:25:06;;;;;;;33.60;20.80;;;10.70;92.30;;;;;;6054951;22;87717;-81
2023/04/16 11:27:34;;;;;;;46.58;23.40;;;10.60;92.20;;;;;;6150928;22;86898;-81
2023/04/16 11:30:23;;;;;;;42.78;24.83;;;10.60;92.20;;;;;;6069627;23;87832;-81
2023/04/16 11:32:53;;;;;;;45.47;26.27;;;10.70;92.20;;;;;;6037427;23;88853;-81
2023/04/16 11:36:07;;;;;;;44.63;25.02;;;10.70;92.10;;;;;;5982598;23;88743;-81
2023/04/16 11:39:04;;;;;;;40.10;22.38;;;10.70;92.10;;;;;;5808779;24;95723;-80
2023/04/16 11:41:31;;;;;;;48.58;24.17;;;10.60;92.30;;;;;;5800342;24;87243;-80
2023/04/16 13:10:46;;;;;;;40.13;20.92;;;11.00;92.10;;;;;;6190227;22;88289;-79
2023/04/16 14:41:55;;;;;;;36.58;22.95;;;12.70;86.20;;;;;;6128152;22;90129;-78
2023/04/16 16:00:58;;;;;;;28.42;17.15;;;13.20;82.90;;;;;;6182502;22;88612;-81
2023/04/16 16:03:23;;;;;;;26.83;17.10;;;13.10;82.30;;;;;;6031528;23;89719;-82
2023/04/16 16:05:49;;;;;;;27.98;16.13;;;13.00;81.60;;;;;;6031609;23;87170;-80
2023/04/16 16:08:15;;;;;;;24.95;16.52;;;12.90;82.10;;;;;;6055470;23;87134;-80
2023/04/16 16:14:10;;;;;;;22.38;15.35;;;12.80;83.60;;;;;;6058480;23;91342;-80
2023/04/16 16:16:36;;;;;;;25.65;15.73;;;12.70;83.90;;;;;;6034686;23;90231;-81
2023/04/16 16:19:02;;;;;;;26.80;16.48;;;12.70;83.70;;;;;;6058594;23;87297;-80
2023/04/16 16:21:29;;;;;;;28.23;16.33;;;12.60;83.70;;;;;;6034455;23;89741;-80
2023/04/16 16:23:57;;;;;;;24.65;16.13;;;12.60;84.00;;;;;;6060243;23;87672;-81
2023/04/16 16:26:29;;;;;;;24.40;16.10;;;12.60;83.50;;;;;;6066156;23;87806;-80
2023/04/16 16:28:57;;;;;;;26.08;15.75;;;12.60;83.50;;;;;;6060909;23;87069;-79
2023/04/16 16:31:28;;;;;;;24.95;15.80;;;12.50;83.10;;;;;;6179264;22;89797;-82
2023/04/16 16:34:17;;;;;;;25.08;15.55;;;12.50;83.40;;;;;;6212017;22;90026;-81
2023/04/16 16:37:09;;;;;;;24.65;15.25;;;12.60;82.60;;;;;;6016746;23;86708;-82
2023/04/16 16:40:10;;;;;;;25.75;16.08;;;12.60;84.20;;;;;;5953632;23;87643;-81
2023/04/16 16:43:39;;;;;;;24.45;15.43;;;12.60;82.70;;;;;;6011541;23;86949;-81
2023/04/16 16:46:48;;;;;;;23.85;15.30;;;12.70;83.80;;;;;;5871671;23;87510;-81
2023/04/16 17:30:26;;;;;;;31.10;17.90;;;12.20;86.10;;;;;;6179349;22;90263;-81
2023/04/16 17:32:54;;;;;;;28.50;18.25;;;12.10;86.90;;;;;;6217144;22;94036;-81
2023/04/16 17:35:21;;;;;;;25.15;17.25;;;12.10;86.20;;;;;;6248342;22;86806;-81
2023/04/16 17:38:27;;;;;;;28.75;16.20;;;12.10;86.60;;;;;;6224024;22;86669;-81
2023/04/16 17:44:34;;;;;;;26.95;17.20;;;12.00;86.30;;;;;;6069282;23;86297;-84
2023/04/16 17:50:49;;;;;;;28.80;17.73;;;11.90;86.80;;;;;;6060503;22;88435;-84
2023/04/16 17:57:36;;;;;;;28.17;18.98;;;11.90;86.40;;;;;;6040238;23;88934;-85
2023/04/16 18:07:47;;;;;;;30.05;19.13;;;11.70;87.10;;;;;;5928042;23;86134;-85
2023/04/16 20:00:55;;;;;;;36.85;23.15;;;10.80;90.50;;;;;;6152578;22;89708;31
